Time;durP1;ratioP1;P1;durP2;ratioP2;P2;SDS_P1;SDS_P2;PMS_P1;PMS_P2;Temp;Humidity;BMP_temperature;BMP_pressure;BME280_temperature;BME280_humidity;BME280_pressure;Samples;Min_cycle;Max_cycle;Signal;HPM_P1;HPM_P2
2021/01/28 00:01:28;;;;;;;24.27;12.17;;;4.30;99.90;;;;;;5071839;28;20179;-91
2021/01/28 00:04:01;;;;;;;23.63;12.27;;;4.20;99.90;;;;;;5072031;28;20199;-91
2021/01/28 00:06:32;;;;;;;26.33;11.93;;;4.20;99.90;;;;;;5071946;28;20236;-90
2021/01/28 00:09:06;;;;;;;22.83;12.23;;;4.20;99.90;;;;;;5072018;28;20274;-92
2021/01/28 00:11:40;;;;;;;24.40;11.90;;;4.30;99.90;;;;;;5071930;28;20166;-91
2021/01/28 00:14:14;;;;;;;21.90;12.07;;;4.30;99.90;;;;;;5071713;28;20215;-91
2021/01/28 00:16:51;;;;;;;25.63;12.80;;;4.30;99.90;;;;;;5072086;28;20175;-91
2021/01/28 00:19:27;;;;;;;21.37;10.83;;;4.30;99.90;;;;;;5071870;28;20558;-90
2021/01/28 00:22:05;;;;;;;22.20;10.73;;;4.30;99.90;;;;;;5071723;28;20621;-91
2021/01/28 00:24:41;;;;;;;24.03;12.30;;;4.40;99.90;;;;;;5071750;28;20175;-90
2021/01/28 00:27:15;;;;;;;21.93;11.47;;;4.30;99.90;;;;;;5072270;28;20182;-91
2021/01/28 00:29:51;;;;;;;19.67;11.30;;;4.30;99.90;;;;;;5071653;28;20229;-91
2021/01/28 00:32:25;;;;;;;25.07;11.63;;;4.40;99.90;;;;;;5071403;28;20199;-91
2021/01/28 00:35:00;;;;;;;24.33;11.77;;;4.40;99.90;;;;;;5071647;28;20254;-91
2021/01/28 00:37:32;;;;;;;23.43;11.83;;;4.50;99.90;;;;;;5071633;28;20170;-92
2021/01/28 00:40:02;;;;;;;19.10;10.30;;;4.50;99.90;;;;;;5071762;28;20182;-91
2021/01/28 00:42:33;;;;;;;18.80;10.93;;;4.50;99.90;;;;;;5075724;28;20200;-91
2021/01/28 00:45:10;;;;;;;18.33;10.50;;;4.50;99.90;;;;;;5075490;28;20189;-91
2021/01/28 00:47:43;;;;;;;23.47;9.80;;;4.40;99.90;;;;;;5075388;28;20239;-91
2021/01/28 00:50:24;;;;;;;16.87;9.80;;;4.40;99.90;;;;;;5075894;28;20566;-90
2021/01/28 00:52:59;;;;;;;18.80;10.90;;;4.40;99.90;;;;;;5075569;28;20606;-92
2021/01/28 00:55:31;;;;;;;23.83;10.90;;;4.40;99.90;;;;;;5075479;28;20171;-91
2021/01/28 00:58:08;;;;;;;19.80;10.70;;;4.40;99.90;;;;;;5075201;28;20583;-91
2021/01/28 01:00:43;;;;;;;25.97;11.33;;;4.40;99.90;;;;;;5075066;28;20258;-91
2021/01/28 01:03:19;;;;;;;21.03;11.17;;;4.40;99.90;;;;;;5075192;28;20687;-91
2021/01/28 01:05:54;;;;;;;18.37;11.70;;;4.40;99.90;;;;;;5074982;28;20262;-92
2021/01/28 01:08:30;;;;;;;18.50;12.07;;;4.30;99.90;;;;;;5074923;28;20198;-90
2021/01/28 01:11:15;;;;;;;16.93;11.27;;;4.20;99.90;;;;;;5074843;28;20236;-90
2021/01/28 01:13:50;;;;;;;15.07;10.00;;;4.10;99.90;;;;;;5074688;28;20215;-90
2021/01/28 01:16:24;;;;;;;18.83;11.57;;;4.10;99.90;;;;;;5075838;28;20179;-90
2021/01/28 01:18:51;;;;;;;16.87;11.03;;;4.00;99.90;;;;;;5075248;28;20199;-90
2021/01/28 01:21:23;;;;;;;18.83;11.30;;;3.90;99.90;;;;;;5074952;28;20172;-91
2021/01/28 01:23:52;;;;;;;16.63;11.50;;;3.80;99.90;;;;;;5074594;28;20199;-90
2021/01/28 01:26:18;;;;;;;19.33;12.47;;;3.80;99.90;;;;;;5074862;28;20206;-90
2021/01/28 01:28:44;;;;;;;21.63;12.13;;;3.70;99.90;;;;;;5074728;28;20182;-89
2021/01/28 01:31:18;;;;;;;20.13;13.03;;;3.60;99.90;;;;;;5076079;28;20171;-90
2021/01/28 01:33:50;;;;;;;20.67;12.77;;;3.50;99.90;;;;;;5074574;28;20316;-91
2021/01/28 01:36:18;;;;;;;23.80;12.97;;;3.50;99.90;;;;;;5074532;28;20588;-90
2021/01/28 01:38:50;;;;;;;23.10;12.70;;;3.40;99.90;;;;;;5074435;28;20266;-91
2021/01/28 01:41:29;;;;;;;18.13;11.83;;;3.30;99.90;;;;;;5074842;28;20167;-91
2021/01/28 01:44:05;;;;;;;19.50;12.07;;;3.30;99.90;;;;;;5074303;28;20286;-91
2021/01/28 01:46:32;;;;;;;19.60;12.47;;;3.30;99.90;;;;;;5074200;28;20597;-91
2021/01/28 01:49:11;;;;;;;19.23;12.43;;;3.30;99.90;;;;;;5074056;28;20204;-91
2021/01/28 01:51:43;;;;;;;22.90;12.60;;;3.30;99.90;;;;;;5073429;28;20593;-91
2021/01/28 01:54:29;;;;;;;18.83;11.90;;;3.10;99.90;;;;;;5073838;28;20281;-91
2021/01/28 01:57:10;;;;;;;18.17;11.83;;;3.10;99.90;;;;;;5074078;28;20170;-92
2021/01/28 01:59:45;;;;;;;18.77;11.97;;;3.10;99.90;;;;;;5073859;28;20171;-91
2021/01/28 02:02:19;;;;;;;19.17;12.50;;;3.00;99.90;;;;;;5073941;28;20175;-92
2021/01/28 02:04:59;;;;;;;20.50;11.57;;;3.00;99.90;;;;;;5074565;28;20178;-91
2021/01/28 02:07:34;;;;;;;16.97;10.93;;;3.00;99.90;;;;;;5074096;28;20265;-91
2021/01/28 02:10:14;;;;;;;19.27;11.33;;;3.00;99.90;;;;;;5073686;28;20203;-91
2021/01/28 02:12:51;;;;;;;21.93;13.17;;;2.90;99.90;;;;;;5073924;28;20662;-92
2021/01/28 02:15:25;;;;;;;21.10;11.30;;;2.90;99.90;;;;;;5073683;28;20549;-91
2021/01/28 02:18:01;;;;;;;18.03;11.60;;;2.80;99.90;;;;;;5073564;28;20169;-92
2021/01/28 02:20:55;;;;;;;17.00;11.17;;;2.70;99.90;;;;;;5073715;28;20190;-91
2021/01/28 02:23:50;;;;;;;14.30;10.10;;;2.70;99.90;;;;;;5073742;28;20294;-91
2021/01/28 02:26:27;;;;;;;15.53;9.93;;;2.80;99.90;;;;;;5073350;28;20175;-91
2021/01/28 02:29:00;;;;;;;17.17;10.20;;;2.70;99.90;;;;;;5073209;28;20195;-91
2021/01/28 02:31:32;;;;;;;14.30;9.40;;;2.70;99.90;;;;;;5073786;28;20654;-93
2021/01/28 02:34:07;;;;;;;16.50;9.97;;;2.60;99.90;;;;;;5073051;28;20209;-91
2021/01/28 02:36:49;;;;;;;14.63;9.50;;;2.40;99.90;;;;;;5073236;28;20271;-91
2021/01/28 02:39:24;;;;;;;12.93;8.70;;;2.30;99.90;;;;;;5073124;28;20211;-91
2021/01/28 02:42:16;;;;;;;15.70;8.50;;;2.40;99.90;;;;;;5073092;28;20179;-91
2021/01/28 02:44:51;;;;;;;12.73;8.33;;;2.30;99.90;;;;;;5073016;28;20549;-91
2021/01/28 02:47:25;;;;;;;14.73;7.47;;;2.20;99.90;;;;;;5072972;28;20182;-91
2021/01/28 02:49:58;;;;;;;9.53;7.03;;;2.10;99.90;;;;;;5072958;28;20201;-91
2021/01/28 02:52:31;;;;;;;12.97;7.33;;;2.10;99.90;;;;;;5072653;28;20248;-91
2021/01/28 02:55:01;;;;;;;9.77;6.97;;;2.10;99.90;;;;;;5072780;28;20159;-91
2021/01/28 02:57:35;;;;;;;10.90;6.27;;;2.10;99.90;;;;;;5072694;28;20174;-91
2021/01/28 03:00:11;;;;;;;10.33;6.77;;;2.10;99.90;;;;;;5072733;28;20185;-91
2021/01/28 03:02:41;;;;;;;11.23;6.67;;;2.10;99.90;;;;;;5072642;28;20193;-91
2021/01/28 03:05:11;;;;;;;10.07;6.23;;;2.10;99.90;;;;;;5072892;28;20638;-91
2021/01/28 03:07:37;;;;;;;9.67;5.10;;;2.10;99.90;;;;;;5073071;28;20180;-91
2021/01/28 03:10:06;;;;;;;7.93;5.47;;;2.00;99.90;;;;;;5072545;28;20744;-92
2021/01/28 03:12:35;;;;;;;8.90;5.90;;;2.00;99.90;;;;;;5072394;28;20190;-91
2021/01/28 03:15:13;;;;;;;9.63;5.70;;;2.00;99.90;;;;;;5072511;28;20174;-91
2021/01/28 03:17:48;;;;;;;7.57;5.60;;;2.00;99.90;;;;;;5072537;28;20206;-91
2021/01/28 03:20:21;;;;;;;8.97;5.80;;;2.00;99.90;;;;;;5072716;28;20255;-92
2021/01/28 03:22:57;;;;;;;11.73;5.33;;;1.90;99.90;;;;;;5072766;28;20198;-91
2021/01/28 03:25:31;;;;;;;8.37;4.70;;;1.80;99.90;;;;;;5072341;28;20177;-91
2021/01/28 03:28:08;;;;;;;7.60;5.40;;;1.90;99.90;;;;;;5072178;28;20174;-91
2021/01/28 03:30:41;;;;;;;9.13;5.70;;;1.80;99.90;;;;;;5072078;28;20233;-91
2021/01/28 03:33:20;;;;;;;6.03;4.73;;;1.70;99.90;;;;;;5073360;28;20589;-91
2021/01/28 03:35:48;;;;;;;11.50;5.20;;;1.70;99.90;;;;;;5072343;28;20175;-91
2021/01/28 03:38:21;;;;;;;10.53;5.67;;;1.60;99.90;;;;;;5072083;28;20174;-91
2021/01/28 03:40:55;;;;;;;6.23;4.93;;;1.60;99.90;;;;;;5072234;28;20172;-91
2021/01/28 03:43:30;;;;;;;7.93;5.10;;;1.70;99.90;;;;;;5072091;28;20518;-91
2021/01/28 03:46:01;;;;;;;7.17;4.73;;;1.70;99.90;;;;;;5072132;28;20190;-91
2021/01/28 03:48:36;;;;;;;10.40;5.17;;;1.60;99.90;;;;;;5073324;28;20178;-91
2021/01/28 03:51:03;;;;;;;9.43;4.93;;;1.70;99.90;;;;;;5072457;28;20550;-91
2021/01/28 03:53:37;;;;;;;6.67;4.67;;;1.70;99.90;;;;;;5071989;28;20197;-91
2021/01/28 03:56:11;;;;;;;7.97;4.80;;;1.70;99.90;;;;;;5072875;28;20214;-91
2021/01/28 03:58:47;;;;;;;7.03;4.70;;;1.80;99.90;;;;;;5071907;28;20174;-91
2021/01/28 04:01:19;;;;;;;7.80;5.60;;;1.80;99.90;;;;;;5072193;28;20173;-91
2021/01/28 04:03:45;;;;;;;7.17;4.80;;;1.80;99.90;;;;;;5072093;28;20567;-91
2021/01/28 04:06:11;;;;;;;8.13;5.10;;;1.80;99.90;;;;;;5071961;28;20169;-91
2021/01/28 04:08:40;;;;;;;13.30;4.67;;;1.70;99.90;;;;;;5072161;28;20265;-91
2021/01/28 04:11:18;;;;;;;7.50;5.03;;;1.80;99.90;;;;;;5071953;28;20173;-92
2021/01/28 04:13:51;;;;;;;7.57;4.77;;;1.80;99.90;;;;;;5071643;28;20192;-92
2021/01/28 04:16:25;;;;;;;9.10;5.20;;;1.70;99.90;;;;;;5074152;28;20177;-91
2021/01/28 04:18:51;;;;;;;8.30;5.57;;;1.70;99.90;;;;;;5075750;28;20182;-91
2021/01/28 04:21:17;;;;;;;8.20;5.10;;;1.80;99.90;;;;;;5075763;28;20186;-91
2021/01/28 04:23:49;;;;;;;7.87;5.00;;;1.80;99.90;;;;;;5075677;28;20192;-91
2021/01/28 04:26:21;;;;;;;8.63;4.90;;;1.70;99.90;;;;;;5075683;28;20185;-91
2021/01/28 04:28:52;;;;;;;8.30;5.27;;;1.70;99.90;;;;;;5075582;28;20645;-91
2021/01/28 04:31:28;;;;;;;5.87;4.50;;;1.70;99.90;;;;;;5075766;28;20242;-91
2021/01/28 04:34:06;;;;;;;6.40;4.57;;;1.60;99.90;;;;;;5075616;28;20208;-91
2021/01/28 04:36:41;;;;;;;9.00;4.67;;;1.70;99.90;;;;;;5075480;28;20175;-91
2021/01/28 04:39:13;;;;;;;7.00;5.47;;;1.60;99.90;;;;;;5075579;28;20185;-91
2021/01/28 04:41:51;;;;;;;10.27;4.97;;;1.60;99.90;;;;;;5075391;28;20181;-91
2021/01/28 04:44:17;;;;;;;6.60;4.73;;;1.50;99.90;;;;;;5075250;28;20203;-91
2021/01/28 04:46:54;;;;;;;7.67;5.30;;;1.60;99.90;;;;;;5075274;28;20248;-91
2021/01/28 04:49:31;;;;;;;8.67;5.10;;;1.50;99.90;;;;;;5075302;28;20185;-91
2021/01/28 04:52:11;;;;;;;7.20;4.83;;;1.50;99.90;;;;;;5075611;28;20171;-91
2021/01/28 04:54:42;;;;;;;12.50;8.80;;;1.60;99.90;;;;;;5075386;28;20185;-91
2021/01/28 04:57:17;;;;;;;7.70;5.33;;;1.60;99.90;;;;;;5075158;28;20535;-91
2021/01/28 04:59:55;;;;;;;12.00;5.23;;;1.60;99.90;;;;;;5075030;28;20172;-91
2021/01/28 05:02:31;;;;;;;5.77;4.80;;;1.60;99.90;;;;;;5075157;28;20195;-91
2021/01/28 05:05:09;;;;;;;7.73;5.33;;;1.60;99.90;;;;;;5075800;28;20255;-92
2021/01/28 05:07:40;;;;;;;8.03;4.80;;;1.60;99.90;;;;;;5074985;28;20177;-91
2021/01/28 05:10:31;;;;;;;6.97;4.90;;;1.60;99.90;;;;;;5075598;28;20196;-91
2021/01/28 05:13:10;;;;;;;5.93;4.40;;;1.70;99.90;;;;;;5075148;28;20200;-92
2021/01/28 05:15:43;;;;;;;6.30;5.50;;;1.60;99.90;;;;;;5074723;28;20171;-92
2021/01/28 05:18:31;;;;;;;5.33;4.23;;;1.60;99.90;;;;;;5074724;28;20189;-91
2021/01/28 05:21:06;;;;;;;7.43;5.10;;;1.60;99.90;;;;;;5074633;28;20530;-91
2021/01/28 05:23:41;;;;;;;7.63;5.10;;;1.60;99.90;;;;;;5074597;28;20197;-91
2021/01/28 05:26:34;;;;;;;7.17;5.20;;;1.60;99.90;;;;;;5074571;28;20187;-92
2021/01/28 05:29:40;;;;;;;6.67;5.07;;;1.50;99.90;;;;;;5074421;28;20204;-92
2021/01/28 05:35:16;;;;;;;5.57;4.53;;;1.50;99.90;;;;;;5095184;22;20278;-86
2021/01/28 05:37:50;;;;;;;6.63;4.47;;;1.60;99.90;;;;;;5075507;28;20527;-85
2021/01/28 05:40:30;;;;;;;7.30;4.83;;;1.60;99.90;;;;;;5075725;28;20156;-86
2021/01/28 05:43:21;;;;;;;6.53;5.20;;;1.40;99.90;;;;;;5075518;28;20196;-86
2021/01/28 05:45:49;;;;;;;6.47;5.23;;;1.40;99.90;;;;;;5074037;28;20258;-85
2021/01/28 05:48:31;;;;;;;8.90;5.67;;;1.40;99.90;;;;;;5073931;28;20182;-85
2021/01/28 05:51:06;;;;;;;6.93;5.77;;;1.40;99.90;;;;;;5075102;28;20760;-86
2021/01/28 05:53:38;;;;;;;6.83;5.40;;;1.40;99.90;;;;;;5074982;28;20195;-85
2021/01/28 05:56:18;;;;;;;5.20;4.57;;;1.30;99.90;;;;;;5075058;28;20647;-85
2021/01/28 05:58:59;;;;;;;7.57;4.80;;;1.30;99.90;;;;;;5073678;28;20181;-86
2021/01/28 06:01:51;;;;;;;7.70;4.97;;;1.30;99.90;;;;;;5073736;28;20174;-86
2021/01/28 06:04:33;;;;;;;7.13;5.07;;;1.20;99.90;;;;;;5074873;28;20189;-85
2021/01/28 06:07:40;;;;;;;9.20;4.73;;;1.20;99.90;;;;;;5073569;28;20174;-86
2021/01/28 06:10:39;;;;;;;6.63;5.30;;;1.20;99.90;;;;;;5059364;28;20217;-86
2021/01/28 06:13:48;;;;;;;6.83;5.17;;;1.20;99.90;;;;;;5074616;28;20268;-86
2021/01/28 06:16:38;;;;;;;7.93;5.40;;;1.10;99.90;;;;;;5073356;28;20190;-86
2021/01/28 06:19:50;;;;;;;8.17;5.87;;;1.10;99.90;;;;;;5073659;28;20179;-86
2021/01/28 06:22:50;;;;;;;6.43;5.03;;;1.10;99.90;;;;;;5073375;28;20185;-86
2021/01/28 06:25:41;;;;;;;8.23;5.20;;;1.10;99.90;;;;;;5073218;28;20262;-86
2021/01/28 06:28:34;;;;;;;7.27;5.03;;;1.00;99.90;;;;;;5073146;28;20594;-86
2021/01/28 06:31:25;;;;;;;5.63;5.03;;;1.10;99.90;;;;;;5073034;28;20329;-86
2021/01/28 06:34:08;;;;;;;6.60;5.67;;;1.00;99.90;;;;;;5072874;28;20217;-86
2021/01/28 06:37:20;;;;;;;6.97;5.53;;;1.00;99.90;;;;;;5074319;28;20178;-85
2021/01/28 06:39:54;;;;;;;7.87;5.67;;;1.00;99.90;;;;;;5072477;28;20225;-86
2021/01/28 06:42:52;;;;;;;7.63;5.70;;;1.00;99.90;;;;;;5072880;28;20180;-86
2021/01/28 06:45:33;;;;;;;8.53;5.60;;;0.80;99.90;;;;;;5074065;28;20175;-86
2021/01/28 06:48:31;;;;;;;8.90;6.03;;;0.80;99.90;;;;;;5072837;28;20176;-86
2021/01/28 06:51:25;;;;;;;6.37;5.50;;;0.60;99.90;;;;;;5073213;28;20200;-86
2021/01/28 06:54:03;;;;;;;6.80;5.27;;;0.60;99.90;;;;;;5072658;28;20196;-86
2021/01/28 06:56:36;;;;;;;8.17;5.87;;;0.40;99.90;;;;;;5073966;28;20179;-86
2021/01/28 06:59:31;;;;;;;7.43;5.47;;;0.40;99.90;;;;;;5073835;28;20174;-86
2021/01/28 07:02:33;;;;;;;8.80;5.53;;;0.40;99.90;;;;;;5074095;28;20189;-86
2021/01/28 07:05:28;;;;;;;7.00;5.63;;;0.40;99.90;;;;;;5072564;28;20170;-86
2021/01/28 07:08:15;;;;;;;6.67;5.47;;;0.50;99.90;;;;;;5073588;28;20208;-86
2021/01/28 07:10:43;;;;;;;7.60;5.50;;;0.40;99.90;;;;;;5073524;28;20195;-86
2021/01/28 07:13:22;;;;;;;9.17;5.87;;;0.50;99.90;;;;;;5072551;28;20191;-86
2021/01/28 07:16:28;;;;;;;7.17;5.40;;;0.40;99.90;;;;;;5072346;28;20205;-86
2021/01/28 07:19:07;;;;;;;8.03;5.90;;;0.40;99.90;;;;;;5050784;28;20188;-86
2021/01/28 07:21:41;;;;;;;8.37;6.17;;;0.40;99.90;;;;;;5072205;28;20641;-85
2021/01/28 07:24:31;;;;;;;8.37;5.57;;;0.50;99.90;;;;;;5072149;28;20252;-86
2021/01/28 07:27:12;;;;;;;9.60;5.90;;;0.60;99.90;;;;;;5073689;28;20250;-86
2021/01/28 07:29:51;;;;;;;8.30;6.07;;;0.60;99.90;;;;;;5073287;28;20608;-86
2021/01/28 07:32:31;;;;;;;8.17;6.13;;;0.60;99.90;;;;;;5072151;28;20193;-86
2021/01/28 07:35:31;;;;;;;8.23;6.27;;;0.60;99.90;;;;;;5074266;28;20191;-86
2021/01/28 07:38:37;;;;;;;8.80;6.30;;;0.60;99.90;;;;;;5071949;28;20173;-86
2021/01/28 07:41:15;;;;;;;7.97;5.80;;;0.60;99.90;;;;;;5073172;28;20176;-86
2021/01/28 07:43:51;;;;;;;7.50;6.43;;;0.70;99.90;;;;;;5071913;28;20195;-85
2021/01/28 07:46:33;;;;;;;8.50;7.00;;;0.60;99.90;;;;;;5073190;28;20572;-86
2021/01/28 07:49:22;;;;;;;8.70;7.33;;;0.60;99.90;;;;;;5071770;28;20178;-86
2021/01/28 07:52:17;;;;;;;8.00;6.30;;;0.70;99.90;;;;;;5072565;28;20168;-85
2021/01/28 07:54:51;;;;;;;9.80;6.80;;;0.60;99.90;;;;;;5072936;28;20195;-85
2021/01/28 07:57:45;;;;;;;9.83;7.43;;;0.70;99.90;;;;;;5073010;28;20169;-85
2021/01/28 08:00:20;;;;;;;9.37;6.77;;;0.70;99.90;;;;;;5071789;28;20188;-85
2021/01/28 08:03:05;;;;;;;10.00;7.63;;;0.60;99.90;;;;;;5071638;28;20182;-85
2021/01/28 08:05:39;;;;;;;9.43;7.43;;;0.50;99.90;;;;;;5073044;28;20187;-85
2021/01/28 08:08:12;;;;;;;9.67;7.83;;;0.50;99.90;;;;;;5073201;28;20164;-85
2021/01/28 08:10:46;;;;;;;13.33;9.90;;;0.50;99.90;;;;;;5072869;28;20704;-85
2021/01/28 08:13:31;;;;;;;14.23;8.70;;;0.50;99.90;;;;;;5073069;28;20183;-85
2021/01/28 08:16:09;;;;;;;11.43;8.43;;;0.50;99.90;;;;;;5071605;28;20647;-85
2021/01/28 08:19:00;;;;;;;10.90;8.23;;;0.50;99.90;;;;;;5071957;28;20168;-85
2021/01/28 08:21:31;;;;;;;9.47;7.80;;;0.50;99.90;;;;;;5071568;28;20181;-86
2021/01/28 08:24:34;;;;;;;12.97;9.07;;;0.40;99.90;;;;;;5071483;28;20568;-86
2021/01/28 08:27:31;;;;;;;12.30;9.03;;;0.40;99.90;;;;;;5071547;28;20622;-85
2021/01/28 08:30:21;;;;;;;12.00;8.80;;;0.30;99.90;;;;;;5072419;28;20544;-85
2021/01/28 08:33:00;;;;;;;10.03;8.53;;;0.30;99.90;;;;;;5071199;28;20650;-85
2021/01/28 08:35:55;;;;;;;10.77;8.37;;;0.40;99.90;;;;;;5071399;28;20662;-85
2021/01/28 08:38:34;;;;;;;12.63;8.40;;;0.40;99.90;;;;;;5071748;28;20179;-86
2021/01/28 08:41:20;;;;;;;13.90;9.80;;;0.30;99.90;;;;;;5071449;28;20693;-86
2021/01/28 08:44:10;;;;;;;15.90;9.77;;;0.40;99.90;;;;;;5071222;28;20286;-85
2021/01/28 08:46:48;;;;;;;12.57;9.73;;;0.40;99.90;;;;;;5072602;28;20176;-85
2021/01/28 08:49:17;;;;;;;13.97;9.40;;;0.40;99.90;;;;;;5071213;28;20211;-85
2021/01/28 08:52:04;;;;;;;14.27;9.97;;;0.40;99.90;;;;;;5071238;28;20167;-85
2021/01/28 08:54:45;;;;;;;15.70;9.73;;;0.40;99.90;;;;;;5072423;28;20191;-85
2021/01/28 08:57:17;;;;;;;14.70;9.53;;;0.40;99.90;;;;;;5072821;28;20164;-85
2021/01/28 08:59:57;;;;;;;13.67;10.80;;;0.40;99.90;;;;;;5071256;28;20183;-85
2021/01/28 09:02:37;;;;;;;19.73;11.43;;;0.40;99.90;;;;;;5074780;28;20252;-85
2021/01/28 09:05:32;;;;;;;14.80;9.97;;;0.40;99.90;;;;;;5074817;28;20274;-85
2021/01/28 09:08:36;;;;;;;19.53;12.13;;;0.30;99.90;;;;;;5074805;28;20175;-85
2021/01/28 09:11:29;;;;;;;12.43;9.80;;;0.30;99.90;;;;;;5074638;28;20206;-85
2021/01/28 09:14:29;;;;;;;15.57;10.77;;;0.40;99.90;;;;;;5075829;28;20689;-85
2021/01/28 09:17:21;;;;;;;16.90;10.73;;;0.30;99.90;;;;;;5063745;28;20723;-85
2021/01/28 09:19:57;;;;;;;18.33;11.67;;;0.30;99.90;;;;;;5075768;28;20547;-85
2021/01/28 09:22:37;;;;;;;14.93;10.57;;;0.40;99.90;;;;;;5075839;28;20170;-85
2021/01/28 09:25:20;;;;;;;18.60;9.97;;;0.30;99.90;;;;;;5075681;28;20168;-85
2021/01/28 09:28:04;;;;;;;15.10;10.10;;;0.40;99.90;;;;;;5075739;28;20636;-85
2021/01/28 09:30:49;;;;;;;13.40;9.73;;;0.50;99.90;;;;;;5074489;28;20659;-85
2021/01/28 09:33:25;;;;;;;13.80;9.47;;;0.40;99.90;;;;;;5075424;28;20289;-85
2021/01/28 09:36:26;;;;;;;12.53;9.23;;;0.40;99.90;;;;;;5074304;28;20181;-85
2021/01/28 09:39:29;;;;;;;11.33;8.60;;;0.40;99.90;;;;;;5074246;28;20196;-85
2021/01/28 09:42:19;;;;;;;13.97;9.77;;;0.40;99.90;;;;;;5075491;28;20155;-85
2021/01/28 09:44:51;;;;;;;13.47;9.90;;;0.40;99.90;;;;;;5074081;28;20243;-85
2021/01/28 09:47:31;;;;;;;14.67;9.07;;;0.40;99.90;;;;;;5074053;28;20651;-85
2021/01/28 09:50:07;;;;;;;15.67;10.43;;;0.40;99.90;;;;;;5074049;28;20206;-88
2021/01/28 09:52:47;;;;;;;13.93;8.93;;;0.50;99.90;;;;;;5074333;28;20183;-88
2021/01/28 09:55:24;;;;;;;12.90;9.80;;;0.50;99.90;;;;;;5075639;28;20163;-89
2021/01/28 09:57:52;;;;;;;12.67;9.33;;;0.50;99.90;;;;;;5074120;28;20232;-88
2021/01/28 10:00:24;;;;;;;12.80;9.13;;;0.60;99.90;;;;;;5074067;28;20179;-88
2021/01/28 10:03:01;;;;;;;12.43;9.13;;;0.60;99.90;;;;;;5073963;28;20175;-87
2021/01/28 10:05:32;;;;;;;11.97;9.33;;;0.70;99.90;;;;;;5073918;28;20175;-87
2021/01/28 10:08:04;;;;;;;13.53;9.67;;;0.70;99.90;;;;;;5075154;28;20171;-88
2021/01/28 10:10:37;;;;;;;11.50;9.20;;;0.70;99.90;;;;;;5074418;28;20729;-87
2021/01/28 10:13:21;;;;;;;12.00;9.50;;;0.80;99.90;;;;;;5072991;28;20195;-88
2021/01/28 10:15:50;;;;;;;13.53;8.63;;;0.80;99.90;;;;;;5073709;28;20199;-88
2021/01/28 10:18:24;;;;;;;12.20;8.73;;;0.80;99.90;;;;;;5073522;28;20175;-88
2021/01/28 10:20:56;;;;;;;11.70;8.40;;;0.90;99.90;;;;;;5074100;28;20180;-88
2021/01/28 10:23:27;;;;;;;11.70;8.43;;;0.90;99.90;;;;;;5073372;28;20206;-88
2021/01/28 10:25:57;;;;;;;11.97;8.13;;;0.90;99.90;;;;;;5073316;28;20171;-88
2021/01/28 10:28:34;;;;;;;10.70;7.87;;;0.90;99.90;;;;;;5073368;28;20651;-89
2021/01/28 10:31:06;;;;;;;10.40;8.17;;;0.90;99.90;;;;;;5073817;28;20227;-88
2021/01/28 10:33:40;;;;;;;10.70;7.73;;;0.90;99.90;;;;;;5074339;28;20688;-88
2021/01/28 10:36:17;;;;;;;13.40;8.57;;;0.80;99.90;;;;;;5074744;28;20240;-87
2021/01/28 10:38:46;;;;;;;9.47;7.97;;;0.90;99.90;;;;;;5074574;28;20163;-88
2021/01/28 10:41:17;;;;;;;14.10;8.07;;;0.90;99.90;;;;;;5073085;28;20224;-88
2021/01/28 10:43:51;;;;;;;11.93;7.83;;;0.80;99.90;;;;;;5074760;28;20219;-88
2021/01/28 10:46:28;;;;;;;12.27;8.57;;;0.90;99.90;;;;;;5074650;28;20164;-88
2021/01/28 10:49:01;;;;;;;11.37;8.17;;;0.80;99.90;;;;;;5074890;28;20174;-88
2021/01/28 10:51:35;;;;;;;8.77;6.93;;;0.90;99.90;;;;;;5073464;28;20164;-88
2021/01/28 10:54:07;;;;;;;9.20;6.50;;;0.90;99.90;;;;;;5073284;28;20219;-88
2021/01/28 10:56:44;;;;;;;9.37;6.57;;;0.80;99.90;;;;;;5073059;28;20524;-88
2021/01/28 10:59:11;;;;;;;9.97;6.77;;;0.90;99.90;;;;;;5074163;28;20178;-89
2021/01/28 11:01:40;;;;;;;11.87;7.43;;;0.80;99.90;;;;;;5074074;28;20175;-89
2021/01/28 11:04:13;;;;;;;10.63;7.13;;;0.90;99.90;;;;;;5072906;28;20199;-89
2021/01/28 11:06:47;;;;;;;7.87;6.40;;;0.90;99.90;;;;;;5072957;28;20176;-91
2021/01/28 11:09:24;;;;;;;11.27;6.70;;;0.90;99.90;;;;;;5073085;28;20663;-90
2021/01/28 11:11:52;;;;;;;8.83;6.53;;;0.90;99.90;;;;;;5072577;28;20643;-91
2021/01/28 11:14:18;;;;;;;8.30;6.20;;;0.90;99.90;;;;;;5073671;28;20195;-89
2021/01/28 11:16:47;;;;;;;11.87;7.00;;;0.90;99.90;;;;;;5072205;28;20175;-89
2021/01/28 11:19:18;;;;;;;7.00;5.60;;;0.90;99.90;;;;;;5072617;28;20200;-89
2021/01/28 11:21:48;;;;;;;8.60;6.23;;;0.90;99.90;;;;;;5072899;28;20661;-88
2021/01/28 11:24:16;;;;;;;9.40;5.57;;;0.90;99.90;;;;;;5072072;28;20199;-88
2021/01/28 11:26:42;;;;;;;6.30;5.20;;;0.90;99.90;;;;;;5072471;28;20329;-88
2021/01/28 11:29:17;;;;;;;7.90;5.97;;;0.90;99.90;;;;;;5072171;28;20659;-88
2021/01/28 11:31:51;;;;;;;6.80;5.80;;;0.90;99.90;;;;;;5073546;28;20198;-88
2021/01/28 11:34:27;;;;;;;9.23;5.73;;;0.90;99.90;;;;;;5164916;22;20227;-91
2021/01/28 11:36:59;;;;;;;10.40;6.63;;;0.90;99.90;;;;;;5073121;28;20728;-91
2021/01/28 11:39:31;;;;;;;8.97;6.40;;;0.90;99.90;;;;;;5073074;28;20689;-92
2021/01/28 11:42:01;;;;;;;10.33;5.87;;;1.00;99.90;;;;;;5076063;28;20186;-91
2021/01/28 11:44:27;;;;;;;7.03;5.27;;;1.00;99.90;;;;;;5073917;28;20207;-91
2021/01/28 11:47:01;;;;;;;8.73;6.07;;;1.00;99.90;;;;;;5073850;28;20179;-92
2021/01/28 11:49:34;;;;;;;7.83;4.93;;;1.00;99.90;;;;;;5074251;28;20202;-92
2021/01/28 11:52:07;;;;;;;8.57;5.87;;;1.00;99.90;;;;;;5073269;28;20639;-92
2021/01/28 11:54:43;;;;;;;8.40;5.60;;;1.00;99.90;;;;;;5073410;28;20682;-91
2021/01/28 11:57:20;;;;;;;6.10;5.17;;;1.00;99.90;;;;;;5073257;28;20213;-92
2021/01/28 11:59:53;;;;;;;6.73;5.00;;;1.00;99.90;;;;;;5073144;28;20175;-91
2021/01/28 12:02:28;;;;;;;9.77;6.37;;;1.10;99.90;;;;;;5075149;28;20183;-92
2021/01/28 12:04:57;;;;;;;8.93;5.80;;;1.10;99.90;;;;;;5075063;28;20282;-92
2021/01/28 12:07:27;;;;;;;8.07;5.90;;;1.00;99.90;;;;;;5083632;28;20167;-91
2021/01/28 12:10:01;;;;;;;8.47;5.67;;;1.10;99.90;;;;;;5085264;28;20211;-92
2021/01/28 12:12:38;;;;;;;9.43;5.40;;;1.10;99.90;;;;;;5084067;28;20186;-90
2021/01/28 12:15:11;;;;;;;6.43;5.33;;;1.10;99.90;;;;;;5075969;28;20193;-91
2021/01/28 12:17:40;;;;;;;6.20;4.80;;;1.10;99.90;;;;;;5073228;28;20177;-91
2021/01/28 12:20:16;;;;;;;6.43;5.07;;;1.20;99.90;;;;;;5073123;28;20203;-92
2021/01/28 12:22:51;;;;;;;8.70;5.57;;;1.20;99.90;;;;;;5074671;28;20176;-90
2021/01/28 12:25:24;;;;;;;13.93;4.83;;;1.30;99.90;;;;;;5079926;28;20231;-92
2021/01/28 12:27:58;;;;;;;8.17;5.50;;;1.30;99.90;;;;;;5083114;28;20164;-90
2021/01/28 12:30:36;;;;;;;8.73;5.37;;;1.30;99.90;;;;;;5076300;28;20355;-91
2021/01/28 12:33:09;;;;;;;6.77;4.80;;;1.30;99.90;;;;;;5073115;28;20175;-91
2021/01/28 12:35:43;;;;;;;6.53;4.87;;;1.30;99.90;;;;;;5075581;28;20174;-91
2021/01/28 12:38:14;;;;;;;8.97;4.80;;;1.30;99.90;;;;;;5080938;28;20171;-91
2021/01/28 12:40:49;;;;;;;6.67;4.93;;;1.30;99.90;;;;;;5077771;28;20181;-91
2021/01/28 12:43:21;;;;;;;10.37;5.20;;;1.30;99.90;;;;;;5077900;28;20186;-91
2021/01/28 12:45:58;;;;;;;8.77;5.20;;;1.30;99.90;;;;;;5079446;28;20167;-92
2021/01/28 12:48:31;;;;;;;6.60;5.03;;;1.30;99.90;;;;;;5083196;28;20178;-91
2021/01/28 12:50:57;;;;;;;5.77;4.33;;;1.30;99.90;;;;;;5082334;28;20200;-91
2021/01/28 12:53:32;;;;;;;6.53;4.03;;;1.30;99.90;;;;;;5082425;28;20735;-92
2021/01/28 12:56:01;;;;;;;3.87;2.70;;;1.30;99.90;;;;;;5079999;28;20213;-91
2021/01/28 12:58:27;;;;;;;4.93;3.83;;;1.40;99.90;;;;;;5080408;28;20175;-91
2021/01/28 13:00:54;;;;;;;4.13;3.30;;;1.50;99.90;;;;;;5081668;28;20171;-90
2021/01/28 13:03:23;;;;;;;5.70;4.30;;;1.50;99.90;;;;;;5076059;28;20176;-89
2021/01/28 13:05:51;;;;;;;4.40;3.90;;;1.60;99.90;;;;;;5076561;28;20178;-90
2021/01/28 13:08:17;;;;;;;4.57;3.70;;;1.70;99.90;;;;;;5076268;28;20175;-89
2021/01/28 13:10:48;;;;;;;9.27;3.77;;;1.70;99.90;;;;;;5074768;28;20608;-90
2021/01/28 13:13:17;;;;;;;3.90;3.37;;;1.80;99.90;;;;;;5074745;28;20680;-89
2021/01/28 13:15:43;;;;;;;3.73;3.07;;;1.90;99.90;;;;;;5074849;28;20197;-88
2021/01/28 13:18:12;;;;;;;4.17;3.20;;;1.90;99.90;;;;;;5076007;28;20648;-88
2021/01/28 13:20:48;;;;;;;2.50;2.17;;;1.90;99.90;;;;;;5074690;28;20175;-90
2021/01/28 13:23:21;;;;;;;5.93;3.87;;;1.90;99.90;;;;;;5074737;28;20175;-89
2021/01/28 13:25:55;;;;;;;5.63;2.83;;;1.90;99.90;;;;;;5075354;28;20179;-89
2021/01/28 13:28:30;;;;;;;5.03;2.90;;;2.00;99.90;;;;;;5074659;28;20183;-89
2021/01/28 13:31:01;;;;;;;6.50;3.17;;;2.00;99.90;;;;;;5074995;28;20205;-88
2021/01/28 13:33:33;;;;;;;5.87;3.07;;;2.00;99.90;;;;;;5074232;28;20675;-89
2021/01/28 13:36:04;;;;;;;2.47;2.13;;;1.90;99.90;;;;;;5075254;28;20167;-88
2021/01/28 13:38:30;;;;;;;3.60;2.97;;;1.90;99.90;;;;;;5074417;28;20210;-88
2021/01/28 13:40:59;;;;;;;4.43;3.80;;;1.90;99.90;;;;;;5074573;28;20554;-87
2021/01/28 13:43:34;;;;;;;2.23;2.03;;;2.00;99.90;;;;;;5074350;28;20289;-88
2021/01/28 13:46:11;;;;;;;4.53;3.03;;;2.00;99.90;;;;;;5074228;28;20167;-89